sensor_id;sensor_type;location;lat;lon;timestamp;temperature;humidity
18297;DHT22;18066;52.106;5.534;2022-07-23T00:01:09;17.10;99.90
18297;DHT22;18066;52.106;5.534;2022-07-23T00:03:35;17.10;99.90
18297;DHT22;18066;52.106;5.534;2022-07-23T00:06:02;17.00;99.90
18297;DHT22;18066;52.106;5.534;2022-07-23T00:08:30;17.00;99.90
18297;DHT22;18066;52.106;5.534;2022-07-23T00:10:57;17.00;99.90
18297;DHT22;18066;52.106;5.534;2022-07-23T00:13:24;16.90;99.90
18297;DHT22;18066;52.106;5.534;2022-07-23T00:15:50;16.90;99.90
18297;DHT22;18066;52.106;5.534;2022-07-23T00:18:17;16.80;99.90
18297;DHT22;18066;52.106;5.534;2022-07-23T00:20:44;16.80;99.90
18297;DHT22;18066;52.106;5.534;2022-07-23T00:23:10;16.80;99.90
18297;DHT22;18066;52.106;5.534;2022-07-23T00:25:39;16.80;99.90
18297;DHT22;18066;52.106;5.534;2022-07-23T00:28:05;16.80;99.90
18297;DHT22;18066;52.106;5.534;2022-07-23T00:30:33;16.70;99.90
18297;DHT22;18066;52.106;5.534;2022-07-23T00:33:01;16.70;99.90
18297;DHT22;18066;52.106;5.534;2022-07-23T00:35:31;16.70;99.90
18297;DHT22;18066;52.106;5.534;2022-07-23T00:37:58;16.70;99.90
18297;DHT22;18066;52.106;5.534;2022-07-23T00:40:25;16.60;99.90
18297;DHT22;18066;52.106;5.534;2022-07-23T00:42:54;16.60;99.90
18297;DHT22;18066;52.106;5.534;2022-07-23T00:45:21;16.60;99.90
18297;DHT22;18066;52.106;5.534;2022-07-23T00:47:48;16.60;99.90
18297;DHT22;18066;52.106;5.534;2022-07-23T00:50:15;16.50;99.90
18297;DHT22;18066;52.106;5.534;2022-07-23T00:52:41;16.50;99.90
18297;DHT22;18066;52.106;5.534;2022-07-23T00:55:09;16.50;99.90
18297;DHT22;18066;52.106;5.534;2022-07-23T00:57:37;16.50;99.90
18297;DHT22;18066;52.106;5.534;2022-07-23T01:00:07;16.50;99.90
18297;DHT22;18066;52.106;5.534;2022-07-23T01:02:34;16.50;99.90
18297;DHT22;18066;52.106;5.534;2022-07-23T01:05:01;16.50;99.90
18297;DHT22;18066;52.106;5.534;2022-07-23T01:07:28;16.50;99.90
18297;DHT22;18066;52.106;5.534;2022-07-23T01:09:56;16.40;99.90
18297;DHT22;18066;52.106;5.534;2022-07-23T01:12:23;16.40;99.90
18297;DHT22;18066;52.106;5.534;2022-07-23T01:14:54;16.40;99.90
18297;DHT22;18066;52.106;5.534;2022-07-23T01:17:22;16.40;99.90
18297;DHT22;18066;52.106;5.534;2022-07-23T01:19:49;16.30;99.90
18297;DHT22;18066;52.106;5.534;2022-07-23T01:22:19;16.40;99.90
18297;DHT22;18066;52.106;5.534;2022-07-23T01:24:47;16.40;99.90
18297;DHT22;18066;52.106;5.534;2022-07-23T01:27:14;16.40;99.90
18297;DHT22;18066;52.106;5.534;2022-07-23T01:29:43;16.40;99.90
18297;DHT22;18066;52.106;5.534;2022-07-23T01:32:09;16.40;99.90
18297;DHT22;18066;52.106;5.534;2022-07-23T01:34:36;16.30;99.90
18297;DHT22;18066;52.106;5.534;2022-07-23T01:37:03;16.30;99.90
18297;DHT22;18066;52.106;5.534;2022-07-23T01:39:29;16.30;99.90
18297;DHT22;18066;52.106;5.534;2022-07-23T01:41:57;16.20;99.90
18297;DHT22;18066;52.106;5.534;2022-07-23T01:44:24;16.20;99.90
18297;DHT22;18066;52.106;5.534;2022-07-23T01:46:51;16.10;99.90
18297;DHT22;18066;52.106;5.534;2022-07-23T01:49:18;16.10;99.90
18297;DHT22;18066;52.106;5.534;2022-07-23T01:51:44;16.10;99.90
18297;DHT22;18066;52.106;5.534;2022-07-23T01:54:40;16.10;99.90
18297;DHT22;18066;52.106;5.534;2022-07-23T01:57:07;16.10;99.90
18297;DHT22;18066;52.106;5.534;2022-07-23T01:59:34;16.10;99.90
18297;DHT22;18066;52.106;5.534;2022-07-23T02:02:01;16.10;99.90
18297;DHT22;18066;52.106;5.534;2022-07-23T02:04:28;16.00;99.90
18297;DHT22;18066;52.106;5.534;2022-07-23T02:06:55;16.00;99.90
18297;DHT22;18066;52.106;5.534;2022-07-23T02:09:22;16.00;99.90
18297;DHT22;18066;52.106;5.534;2022-07-23T02:11:50;15.90;99.90
18297;DHT22;18066;52.106;5.534;2022-07-23T02:14:17;15.90;99.90
18297;DHT22;18066;52.106;5.534;2022-07-23T02:16:43;15.90;99.90
18297;DHT22;18066;52.106;5.534;2022-07-23T02:19:10;15.80;99.90
18297;DHT22;18066;52.106;5.534;2022-07-23T02:21:37;15.80;99.90
18297;DHT22;18066;52.106;5.534;2022-07-23T02:24:04;15.80;99.90
18297;DHT22;18066;52.106;5.534;2022-07-23T02:26:31;15.80;99.90
18297;DHT22;18066;52.106;5.534;2022-07-23T02:29:01;15.70;99.90
18297;DHT22;18066;52.106;5.534;2022-07-23T02:31:28;15.70;99.90
18297;DHT22;18066;52.106;5.534;2022-07-23T02:33:55;15.70;99.90
18297;DHT22;18066;52.106;5.534;2022-07-23T02:36:23;15.60;99.90
18297;DHT22;18066;52.106;5.534;2022-07-23T02:38:50;15.60;99.90
18297;DHT22;18066;52.106;5.534;2022-07-23T02:41:17;15.60;99.90
18297;DHT22;18066;52.106;5.534;2022-07-23T02:43:43;15.60;99.90
18297;DHT22;18066;52.106;5.534;2022-07-23T02:46:11;15.60;99.90
18297;DHT22;18066;52.106;5.534;2022-07-23T02:48:38;15.60;99.90
18297;DHT22;18066;52.106;5.534;2022-07-23T02:51:05;15.60;99.90
18297;DHT22;18066;52.106;5.534;2022-07-23T02:53:32;15.50;99.90
18297;DHT22;18066;52.106;5.534;2022-07-23T02:55:58;15.50;99.90
18297;DHT22;18066;52.106;5.534;2022-07-23T02:58:25;15.50;99.90
18297;DHT22;18066;52.106;5.534;2022-07-23T03:00:52;15.50;99.90
18297;DHT22;18066;52.106;5.534;2022-07-23T03:03:20;15.50;99.90
18297;DHT22;18066;52.106;5.534;2022-07-23T03:05:47;15.50;99.90
18297;DHT22;18066;52.106;5.534;2022-07-23T03:08:14;15.50;99.90
18297;DHT22;18066;52.106;5.534;2022-07-23T03:10:40;15.40;99.90
18297;DHT22;18066;52.106;5.534;2022-07-23T03:13:07;15.50;99.90
18297;DHT22;18066;52.106;5.534;2022-07-23T03:15:34;15.40;99.90
18297;DHT22;18066;52.106;5.534;2022-07-23T03:18:00;15.40;99.90
18297;DHT22;18066;52.106;5.534;2022-07-23T03:20:28;15.40;99.90
18297;DHT22;18066;52.106;5.534;2022-07-23T03:22:55;15.40;99.90
18297;DHT22;18066;52.106;5.534;2022-07-23T03:25:22;15.30;99.90
18297;DHT22;18066;52.106;5.534;2022-07-23T03:27:49;15.30;99.90
18297;DHT22;18066;52.106;5.534;2022-07-23T03:30:15;15.30;99.90
18297;DHT22;18066;52.106;5.534;2022-07-23T03:32:42;15.30;99.90
18297;DHT22;18066;52.106;5.534;2022-07-23T03:35:10;15.20;99.90
18297;DHT22;18066;52.106;5.534;2022-07-23T03:37:38;15.20;99.90
18297;DHT22;18066;52.106;5.534;2022-07-23T03:40:06;15.10;99.90
18297;DHT22;18066;52.106;5.534;2022-07-23T03:42:33;15.10;99.90
18297;DHT22;18066;52.106;5.534;2022-07-23T03:45:00;15.10;99.90
18297;DHT22;18066;52.106;5.534;2022-07-23T03:47:27;15.10;99.90
18297;DHT22;18066;52.106;5.534;2022-07-23T03:49:53;15.00;99.90
18297;DHT22;18066;52.106;5.534;2022-07-23T03:52:20;15.10;99.90
18297;DHT22;18066;52.106;5.534;2022-07-23T03:54:48;15.00;99.90
18297;DHT22;18066;52.106;5.534;2022-07-23T03:57:15;15.00;99.90
18297;DHT22;18066;52.106;5.534;2022-07-23T03:59:41;15.00;99.90
18297;DHT22;18066;52.106;5.534;2022-07-23T04:02:08;15.00;99.90
18297;DHT22;18066;52.106;5.534;2022-07-23T04:04:35;15.00;99.90
18297;DHT22;18066;52.106;5.534;2022-07-23T04:07:02;15.00;99.90
18297;DHT22;18066;52.106;5.534;2022-07-23T04:09:28;15.00;99.90
18297;DHT22;18066;52.106;5.534;2022-07-23T04:11:56;15.00;99.90
18297;DHT22;18066;52.106;5.534;2022-07-23T04:14:23;15.10;99.90
18297;DHT22;18066;52.106;5.534;2022-07-23T04:16:50;15.10;99.90
18297;DHT22;18066;52.106;5.534;2022-07-23T04:19:16;15.10;99.90
18297;DHT22;18066;52.106;5.534;2022-07-23T04:21:43;15.10;99.90
18297;DHT22;18066;52.106;5.534;2022-07-23T04:24:10;15.00;99.90
18297;DHT22;18066;52.106;5.534;2022-07-23T04:26:36;15.00;99.90
18297;DHT22;18066;52.106;5.534;2022-07-23T04:29:04;15.00;99.90
18297;DHT22;18066;52.106;5.534;2022-07-23T04:31:31;15.00;99.90
18297;DHT22;18066;52.106;5.534;2022-07-23T04:33:58;15.10;99.90
18297;DHT22;18066;52.106;5.534;2022-07-23T04:36:24;15.10;99.90
18297;DHT22;18066;52.106;5.534;2022-07-23T04:38:51;15.20;99.90
18297;DHT22;18066;52.106;5.534;2022-07-23T04:41:18;15.30;99.90
18297;DHT22;18066;52.106;5.534;2022-07-23T04:43:45;15.30;99.90
18297;DHT22;18066;52.106;5.534;2022-07-23T04:46:13;15.30;99.90
18297;DHT22;18066;52.106;5.534;2022-07-23T04:48:40;15.40;99.90
18297;DHT22;18066;52.106;5.534;2022-07-23T04:51:07;15.50;99.90
18297;DHT22;18066;52.106;5.534;2022-07-23T04:53:36;15.50;99.90
18297;DHT22;18066;52.106;5.534;2022-07-23T04:56:03;15.50;99.90
18297;DHT22;18066;52.106;5.534;2022-07-23T04:58:30;15.60;99.90
18297;DHT22;18066;52.106;5.534;2022-07-23T05:00:57;15.60;99.90
18297;DHT22;18066;52.106;5.534;2022-07-23T05:03:25;15.70;99.90
18297;DHT22;18066;52.106;5.534;2022-07-23T05:05:52;15.70;99.90
18297;DHT22;18066;52.106;5.534;2022-07-23T05:08:18;15.80;99.90
18297;DHT22;18066;52.106;5.534;2022-07-23T05:10:45;15.80;99.90
18297;DHT22;18066;52.106;5.534;2022-07-23T05:13:14;15.90;99.90
18297;DHT22;18066;52.106;5.534;2022-07-23T05:15:40;16.00;99.90
18297;DHT22;18066;52.106;5.534;2022-07-23T05:18:07;16.10;99.90
18297;DHT22;18066;52.106;5.534;2022-07-23T05:20:35;16.10;99.90
18297;DHT22;18066;52.106;5.534;2022-07-23T05:23:02;16.20;99.90
18297;DHT22;18066;52.106;5.534;2022-07-23T05:25:29;16.30;99.90
18297;DHT22;18066;52.106;5.534;2022-07-23T05:27:56;16.40;99.90
18297;DHT22;18066;52.106;5.534;2022-07-23T05:30:23;16.40;99.90
18297;DHT22;18066;52.106;5.534;2022-07-23T05:32:50;16.50;99.90
18297;DHT22;18066;52.106;5.534;2022-07-23T05:35:17;16.60;99.90
18297;DHT22;18066;52.106;5.534;2022-07-23T05:37:45;16.70;99.90
18297;DHT22;18066;52.106;5.534;2022-07-23T05:40:12;16.80;99.90
18297;DHT22;18066;52.106;5.534;2022-07-23T05:42:40;16.90;99.90
18297;DHT22;18066;52.106;5.534;2022-07-23T05:45:08;17.00;99.90
18297;DHT22;18066;52.106;5.534;2022-07-23T05:47:43;17.10;99.90
18297;DHT22;18066;52.106;5.534;2022-07-23T05:50:10;17.20;99.90
18297;DHT22;18066;52.106;5.534;2022-07-23T05:52:37;17.30;99.90
18297;DHT22;18066;52.106;5.534;2022-07-23T05:55:06;17.40;99.90
18297;DHT22;18066;52.106;5.534;2022-07-23T05:57:33;17.40;99.90
18297;DHT22;18066;52.106;5.534;2022-07-23T06:00:00;17.50;99.90
18297;DHT22;18066;52.106;5.534;2022-07-23T06:02:26;17.60;99.90
18297;DHT22;18066;52.106;5.534;2022-07-23T06:04:53;17.70;99.90
18297;DHT22;18066;52.106;5.534;2022-07-23T06:07:20;17.80;99.90
18297;DHT22;18066;52.106;5.534;2022-07-23T06:09:46;17.90;99.90
18297;DHT22;18066;52.106;5.534;2022-07-23T06:12:15;18.00;99.90
18297;DHT22;18066;52.106;5.534;2022-07-23T06:14:42;18.00;99.90
18297;DHT22;18066;52.106;5.534;2022-07-23T06:17:09;18.10;99.90
18297;DHT22;18066;52.106;5.534;2022-07-23T06:19:36;18.10;99.90
18297;DHT22;18066;52.106;5.534;2022-07-23T06:22:03;18.20;99.90
18297;DHT22;18066;52.106;5.534;2022-07-23T06:24:29;18.20;99.90
18297;DHT22;18066;52.106;5.534;2022-07-23T06:26:56;18.20;99.90
18297;DHT22;18066;52.106;5.534;2022-07-23T06:29:24;18.40;99.90
18297;DHT22;18066;52.106;5.534;2022-07-23T06:31:51;18.40;99.90
18297;DHT22;18066;52.106;5.534;2022-07-23T06:34:17;18.50;99.90
18297;DHT22;18066;52.106;5.534;2022-07-23T06:36:44;18.50;99.90
18297;DHT22;18066;52.106;5.534;2022-07-23T06:39:11;18.50;99.90
18297;DHT22;18066;52.106;5.534;2022-07-23T06:41:37;18.50;99.90
18297;DHT22;18066;52.106;5.534;2022-07-23T06:44:04;18.50;99.90
18297;DHT22;18066;52.106;5.534;2022-07-23T06:46:32;18.60;99.90
18297;DHT22;18066;52.106;5.534;2022-07-23T06:48:59;18.70;99.90
18297;DHT22;18066;52.106;5.534;2022-07-23T06:51:26;18.80;99.90
18297;DHT22;18066;52.106;5.534;2022-07-23T06:53:52;18.90;99.90
18297;DHT22;18066;52.106;5.534;2022-07-23T06:56:19;18.90;99.90
18297;DHT22;18066;52.106;5.534;2022-07-23T06:58:46;19.00;99.90
18297;DHT22;18066;52.106;5.534;2022-07-23T07:01:13;19.00;99.90
18297;DHT22;18066;52.106;5.534;2022-07-23T07:03:41;19.00;99.90
18297;DHT22;18066;52.106;5.534;2022-07-23T07:06:08;19.10;99.90
18297;DHT22;18066;52.106;5.534;2022-07-23T07:08:35;19.20;99.90
18297;DHT22;18066;52.106;5.534;2022-07-23T07:11:03;19.40;99.90
18297;DHT22;18066;52.106;5.534;2022-07-23T07:13:29;19.60;99.90
18297;DHT22;18066;52.106;5.534;2022-07-23T07:15:56;19.70;99.90
18297;DHT22;18066;52.106;5.534;2022-07-23T07:18:23;19.80;99.90
18297;DHT22;18066;52.106;5.534;2022-07-23T07:20:51;19.90;99.90
18297;DHT22;18066;52.106;5.534;2022-07-23T07:23:18;19.90;99.90
18297;DHT22;18066;52.106;5.534;2022-07-23T07:25:45;19.90;99.90
18297;DHT22;18066;52.106;5.534;2022-07-23T07:28:12;20.00;99.90
18297;DHT22;18066;52.106;5.534;2022-07-23T07:30:39;20.20;99.90
18297;DHT22;18066;52.106;5.534;2022-07-23T07:33:06;20.20;99.90
18297;DHT22;18066;52.106;5.534;2022-07-23T07:35:33;20.20;99.90
18297;DHT22;18066;52.106;5.534;2022-07-23T07:38:01;20.30;99.90
18297;DHT22;18066;52.106;5.534;2022-07-23T07:40:28;20.30;99.90
18297;DHT22;18066;52.106;5.534;2022-07-23T07:42:55;20.40;99.90
18297;DHT22;18066;52.106;5.534;2022-07-23T07:45:23;20.60;99.90
18297;DHT22;18066;52.106;5.534;2022-07-23T07:47:50;20.70;99.90
18297;DHT22;18066;52.106;5.534;2022-07-23T07:50:17;20.80;99.90
18297;DHT22;18066;52.106;5.534;2022-07-23T07:52:43;20.90;99.90
18297;DHT22;18066;52.106;5.534;2022-07-23T07:55:12;21.00;99.90
18297;DHT22;18066;52.106;5.534;2022-07-23T07:57:39;21.00;99.90
18297;DHT22;18066;52.106;5.534;2022-07-23T08:00:08;21.00;99.90
18297;DHT22;18066;52.106;5.534;2022-07-23T08:02:43;20.70;99.90
18297;DHT22;18066;52.106;5.534;2022-07-23T08:05:10;20.60;99.90
18297;DHT22;18066;52.106;5.534;2022-07-23T08:07:38;20.60;99.90
18297;DHT22;18066;52.106;5.534;2022-07-23T08:10:06;20.60;99.90
18297;DHT22;18066;52.106;5.534;2022-07-23T08:12:43;20.70;99.90
18297;DHT22;18066;52.106;5.534;2022-07-23T08:15:11;20.90;99.90
18297;DHT22;18066;52.106;5.534;2022-07-23T08:17:38;21.10;99.90
18297;DHT22;18066;52.106;5.534;2022-07-23T08:20:06;21.30;99.90
18297;DHT22;18066;52.106;5.534;2022-07-23T08:22:47;21.40;99.90
18297;DHT22;18066;52.106;5.534;2022-07-23T08:25:14;21.40;99.90
18297;DHT22;18066;52.106;5.534;2022-07-23T08:27:43;21.30;99.90
18297;DHT22;18066;52.106;5.534;2022-07-23T08:30:10;21.30;99.90
18297;DHT22;18066;52.106;5.534;2022-07-23T08:32:51;21.50;99.90
18297;DHT22;18066;52.106;5.534;2022-07-23T08:35:23;21.40;99.90
18297;DHT22;18066;52.106;5.534;2022-07-23T08:37:50;21.50;99.90
18297;DHT22;18066;52.106;5.534;2022-07-23T08:40:17;21.60;99.90
18297;DHT22;18066;52.106;5.534;2022-07-23T08:42:47;21.60;99.90
18297;DHT22;18066;52.106;5.534;2022-07-23T08:45:16;21.70;99.90
18297;DHT22;18066;52.106;5.534;2022-07-23T08:47:44;21.80;99.90
18297;DHT22;18066;52.106;5.534;2022-07-23T08:50:10;21.90;99.90
18297;DHT22;18066;52.106;5.534;2022-07-23T08:52:38;21.80;99.90
18297;DHT22;18066;52.106;5.534;2022-07-23T08:55:06;21.80;99.90
18297;DHT22;18066;52.106;5.534;2022-07-23T08:57:33;21.90;99.90
18297;DHT22;18066;52.106;5.534;2022-07-23T09:00:02;21.70;99.90
18297;DHT22;18066;52.106;5.534;2022-07-23T09:02:28;21.80;99.90
18297;DHT22;18066;52.106;5.534;2022-07-23T09:04:55;22.00;99.90
18297;DHT22;18066;52.106;5.534;2022-07-23T09:07:22;22.00;99.90
18297;DHT22;18066;52.106;5.534;2022-07-23T09:10:06;22.20;99.90
18297;DHT22;18066;52.106;5.534;2022-07-23T09:12:33;22.40;99.90
18297;DHT22;18066;52.106;5.534;2022-07-23T09:15:05;22.50;99.90
18297;DHT22;18066;52.106;5.534;2022-07-23T09:17:40;22.60;99.90
18297;DHT22;18066;52.106;5.534;2022-07-23T09:20:09;22.60;99.90
18297;DHT22;18066;52.106;5.534;2022-07-23T09:22:35;22.70;99.90
18297;DHT22;18066;52.106;5.534;2022-07-23T09:25:04;22.70;99.90
18297;DHT22;18066;52.106;5.534;2022-07-23T09:27:47;22.70;99.90
18297;DHT22;18066;52.106;5.534;2022-07-23T09:30:15;22.70;99.90
18297;DHT22;18066;52.106;5.534;2022-07-23T09:32:42;22.70;99.90
18297;DHT22;18066;52.106;5.534;2022-07-23T09:35:09;22.80;99.90
18297;DHT22;18066;52.106;5.534;2022-07-23T09:37:36;22.80;99.90
18297;DHT22;18066;52.106;5.534;2022-07-23T09:40:05;22.70;99.90
18297;DHT22;18066;52.106;5.534;2022-07-23T09:42:32;22.70;99.90
18297;DHT22;18066;52.106;5.534;2022-07-23T09:44:59;22.60;99.90
18297;DHT22;18066;52.106;5.534;2022-07-23T09:47:28;22.70;99.90
18297;DHT22;18066;52.106;5.534;2022-07-23T09:50:00;23.00;99.90
18297;DHT22;18066;52.106;5.534;2022-07-23T09:52:28;23.20;99.90
18297;DHT22;18066;52.106;5.534;2022-07-23T09:54:59;23.20;99.90
18297;DHT22;18066;52.106;5.534;2022-07-23T09:57:26;23.00;99.90
18297;DHT22;18066;52.106;5.534;2022-07-23T09:59:58;23.00;99.90
18297;DHT22;18066;52.106;5.534;2022-07-23T10:02:28;23.00;99.90
18297;DHT22;18066;52.106;5.534;2022-07-23T10:04:55;23.10;99.90
18297;DHT22;18066;52.106;5.534;2022-07-23T10:07:22;23.20;99.90
18297;DHT22;18066;52.106;5.534;2022-07-23T10:09:51;23.20;99.90
18297;DHT22;18066;52.106;5.534;2022-07-23T10:12:18;23.20;99.90
18297;DHT22;18066;52.106;5.534;2022-07-23T10:14:59;23.30;99.90
18297;DHT22;18066;52.106;5.534;2022-07-23T10:17:28;23.30;99.90
18297;DHT22;18066;52.106;5.534;2022-07-23T10:19:55;23.50;99.90
18297;DHT22;18066;52.106;5.534;2022-07-23T10:22:24;23.60;99.90
18297;DHT22;18066;52.106;5.534;2022-07-23T10:25:08;23.70;99.90
18297;DHT22;18066;52.106;5.534;2022-07-23T10:28:05;23.60;99.90
18297;DHT22;18066;52.106;5.534;2022-07-23T10:30:40;23.60;99.90
18297;DHT22;18066;52.106;5.534;2022-07-23T10:33:22;23.80;99.90
18297;DHT22;18066;52.106;5.534;2022-07-23T10:35:56;23.80;99.90
18297;DHT22;18066;52.106;5.534;2022-07-23T10:38:30;23.60;99.90
18297;DHT22;18066;52.106;5.534;2022-07-23T10:40:58;23.60;99.90
18297;DHT22;18066;52.106;5.534;2022-07-23T10:43:26;23.60;99.90
18297;DHT22;18066;52.106;5.534;2022-07-23T10:45:53;23.60;99.90
18297;DHT22;18066;52.106;5.534;2022-07-23T10:48:23;23.50;99.90
18297;DHT22;18066;52.106;5.534;2022-07-23T10:51:08;23.60;99.90
18297;DHT22;18066;52.106;5.534;2022-07-23T10:53:54;23.90;99.90
18297;DHT22;18066;52.106;5.534;2022-07-23T10:57:04;23.90;99.90
18297;DHT22;18066;52.106;5.534;2022-07-23T10:59:34;23.90;99.90
18297;DHT22;18066;52.106;5.534;2022-07-23T11:02:21;24.00;99.90
18297;DHT22;18066;52.106;5.534;2022-07-23T11:04:51;23.80;99.90
18297;DHT22;18066;52.106;5.534;2022-07-23T11:07:19;23.70;99.90
18297;DHT22;18066;52.106;5.534;2022-07-23T11:09:46;23.70;99.90
18297;DHT22;18066;52.106;5.534;2022-07-23T11:12:34;23.80;99.90
18297;DHT22;18066;52.106;5.534;2022-07-23T11:15:04;23.90;99.90
18297;DHT22;18066;52.106;5.534;2022-07-23T11:17:32;24.00;99.90
18297;DHT22;18066;52.106;5.534;2022-07-23T11:20:21;24.10;99.90
18297;DHT22;18066;52.106;5.534;2022-07-23T11:22:50;24.20;99.90
18297;DHT22;18066;52.106;5.534;2022-07-23T11:25:33;24.30;99.90
18297;DHT22;18066;52.106;5.534;2022-07-23T11:28:10;24.40;99.90
18297;DHT22;18066;52.106;5.534;2022-07-23T11:30:39;24.40;99.90
18297;DHT22;18066;52.106;5.534;2022-07-23T11:33:17;24.60;99.90
18297;DHT22;18066;52.106;5.534;2022-07-23T11:35:47;24.60;99.90
18297;DHT22;18066;52.106;5.534;2022-07-23T11:38:17;24.60;99.90
18297;DHT22;18066;52.106;5.534;2022-07-23T11:40:46;24.60;99.90
18297;DHT22;18066;52.106;5.534;2022-07-23T11:43:13;24.60;99.90
18297;DHT22;18066;52.106;5.534;2022-07-23T11:45:42;24.60;99.90
18297;DHT22;18066;52.106;5.534;2022-07-23T11:48:16;24.70;99.90
18297;DHT22;18066;52.106;5.534;2022-07-23T11:50:43;24.70;99.90
18297;DHT22;18066;52.106;5.534;2022-07-23T11:53:12;24.80;99.90
18297;DHT22;18066;52.106;5.534;2022-07-23T11:55:39;24.90;99.90
18297;DHT22;18066;52.106;5.534;2022-07-23T11:58:05;24.90;99.90
18297;DHT22;18066;52.106;5.534;2022-07-23T12:00:32;24.80;99.90
18297;DHT22;18066;52.106;5.534;2022-07-23T12:03:01;24.70;99.90
18297;DHT22;18066;52.106;5.534;2022-07-23T12:05:30;24.70;99.90
18297;DHT22;18066;52.106;5.534;2022-07-23T12:07:58;24.90;99.90
18297;DHT22;18066;52.106;5.534;2022-07-23T12:10:28;25.00;99.90
18297;DHT22;18066;52.106;5.534;2022-07-23T12:12:57;25.00;99.90
18297;DHT22;18066;52.106;5.534;2022-07-23T12:15:25;25.20;99.90
18297;DHT22;18066;52.106;5.534;2022-07-23T12:17:54;25.30;99.90
18297;DHT22;18066;52.106;5.534;2022-07-23T12:20:23;25.40;99.90
18297;DHT22;18066;52.106;5.534;2022-07-23T12:22:52;25.50;99.90
18297;DHT22;18066;52.106;5.534;2022-07-23T12:25:21;25.40;99.90
18297;DHT22;18066;52.106;5.534;2022-07-23T12:28:01;25.30;99.90
18297;DHT22;18066;52.106;5.534;2022-07-23T12:30:30;25.30;99.90
18297;DHT22;18066;52.106;5.534;2022-07-23T12:32:58;25.40;99.90
18297;DHT22;18066;52.106;5.534;2022-07-23T12:35:31;25.50;99.90
18297;DHT22;18066;52.106;5.534;2022-07-23T12:38:00;25.60;99.90
18297;DHT22;18066;52.106;5.534;2022-07-23T12:40:29;25.80;99.90
18297;DHT22;18066;52.106;5.534;2022-07-23T12:42:59;25.80;99.90
18297;DHT22;18066;52.106;5.534;2022-07-23T12:45:27;25.60;99.90
18297;DHT22;18066;52.106;5.534;2022-07-23T12:48:00;25.50;99.90
18297;DHT22;18066;52.106;5.534;2022-07-23T12:50:37;25.40;99.90
18297;DHT22;18066;52.106;5.534;2022-07-23T12:53:05;25.50;99.90
18297;DHT22;18066;52.106;5.534;2022-07-23T12:55:33;25.50;99.90
18297;DHT22;18066;52.106;5.534;2022-07-23T12:58:05;25.30;99.90
18297;DHT22;18066;52.106;5.534;2022-07-23T13:00:34;25.20;99.90
18297;DHT22;18066;52.106;5.534;2022-07-23T13:03:24;25.20;99.90
18297;DHT22;18066;52.106;5.534;2022-07-23T13:05:51;25.30;99.90
18297;DHT22;18066;52.106;5.534;2022-07-23T13:08:18;25.40;99.90
18297;DHT22;18066;52.106;5.534;2022-07-23T13:10:45;25.60;99.90
18297;DHT22;18066;52.106;5.534;2022-07-23T13:13:15;25.60;99.90
18297;DHT22;18066;52.106;5.534;2022-07-23T13:15:42;25.70;99.90
18297;DHT22;18066;52.106;5.534;2022-07-23T13:18:09;25.70;99.90
18297;DHT22;18066;52.106;5.534;2022-07-23T13:20:36;25.90;99.90
18297;DHT22;18066;52.106;5.534;2022-07-23T13:23:04;26.10;99.90
18297;DHT22;18066;52.106;5.534;2022-07-23T13:25:30;26.20;99.90
18297;DHT22;18066;52.106;5.534;2022-07-23T13:27:57;26.10;99.90
18297;DHT22;18066;52.106;5.534;2022-07-23T13:30:25;26.30;99.90
18297;DHT22;18066;52.106;5.534;2022-07-23T13:32:52;26.50;99.90
18297;DHT22;18066;52.106;5.534;2022-07-23T13:35:19;26.60;99.90
18297;DHT22;18066;52.106;5.534;2022-07-23T13:37:45;26.60;99.90
18297;DHT22;18066;52.106;5.534;2022-07-23T13:40:12;26.50;99.90
18297;DHT22;18066;52.106;5.534;2022-07-23T13:42:39;26.50;99.90
18297;DHT22;18066;52.106;5.534;2022-07-23T13:45:07;26.70;99.90
18297;DHT22;18066;52.106;5.534;2022-07-23T13:47:35;26.70;99.90
18297;DHT22;18066;52.106;5.534;2022-07-23T13:50:02;26.70;99.90
18297;DHT22;18066;52.106;5.534;2022-07-23T13:52:29;27.00;99.90
18297;DHT22;18066;52.106;5.534;2022-07-23T13:54:57;27.10;99.90
18297;DHT22;18066;52.106;5.534;2022-07-23T13:57:23;27.30;99.90
18297;DHT22;18066;52.106;5.534;2022-07-23T13:59:50;27.60;99.90
18297;DHT22;18066;52.106;5.534;2022-07-23T14:02:17;27.80;99.90
18297;DHT22;18066;52.106;5.534;2022-07-23T14:04:45;27.80;99.90
18297;DHT22;18066;52.106;5.534;2022-07-23T14:07:12;27.80;99.90
18297;DHT22;18066;52.106;5.534;2022-07-23T14:09:39;27.70;99.90
18297;DHT22;18066;52.106;5.534;2022-07-23T14:12:06;27.90;99.90
18297;DHT22;18066;52.106;5.534;2022-07-23T14:14:33;28.30;99.90
18297;DHT22;18066;52.106;5.534;2022-07-23T14:17:00;28.60;99.90
18297;DHT22;18066;52.106;5.534;2022-07-23T14:19:28;28.70;99.90
18297;DHT22;18066;52.106;5.534;2022-07-23T14:21:56;28.50;99.90
18297;DHT22;18066;52.106;5.534;2022-07-23T14:24:22;28.60;99.90
18297;DHT22;18066;52.106;5.534;2022-07-23T14:26:49;28.80;99.90
18297;DHT22;18066;52.106;5.534;2022-07-23T14:29:16;28.80;99.90
18297;DHT22;18066;52.106;5.534;2022-07-23T14:31:43;28.90;99.90
18297;DHT22;18066;52.106;5.534;2022-07-23T14:34:09;29.00;99.90
18297;DHT22;18066;52.106;5.534;2022-07-23T14:36:37;29.20;99.90
18297;DHT22;18066;52.106;5.534;2022-07-23T14:39:05;29.90;99.90
18297;DHT22;18066;52.106;5.534;2022-07-23T14:41:34;30.30;99.90
18297;DHT22;18066;52.106;5.534;2022-07-23T14:44:01;30.80;99.90
18297;DHT22;18066;52.106;5.534;2022-07-23T14:46:28;30.60;99.90
18297;DHT22;18066;52.106;5.534;2022-07-23T14:48:54;30.40;99.90
18297;DHT22;18066;52.106;5.534;2022-07-23T14:51:21;30.80;99.90
18297;DHT22;18066;52.106;5.534;2022-07-23T14:53:48;31.10;99.90
18297;DHT22;18066;52.106;5.534;2022-07-23T14:56:17;30.60;99.90
18297;DHT22;18066;52.106;5.534;2022-07-23T14:58:43;30.20;99.90
18297;DHT22;18066;52.106;5.534;2022-07-23T15:01:10;29.90;99.90
18297;DHT22;18066;52.106;5.534;2022-07-23T15:03:37;29.50;99.90
18297;DHT22;18066;52.106;5.534;2022-07-23T15:06:04;29.40;99.90
18297;DHT22;18066;52.106;5.534;2022-07-23T15:08:31;29.40;99.90
18297;DHT22;18066;52.106;5.534;2022-07-23T15:10:58;29.30;99.90
18297;DHT22;18066;52.106;5.534;2022-07-23T15:13:26;29.80;99.90
18297;DHT22;18066;52.106;5.534;2022-07-23T15:15:53;30.00;99.90
18297;DHT22;18066;52.106;5.534;2022-07-23T15:18:19;30.00;99.90
18297;DHT22;18066;52.106;5.534;2022-07-23T15:20:46;30.80;99.90
18297;DHT22;18066;52.106;5.534;2022-07-23T15:23:13;32.00;99.90
18297;DHT22;18066;52.106;5.534;2022-07-23T15:25:39;31.90;99.90
18297;DHT22;18066;52.106;5.534;2022-07-23T15:28:06;32.20;99.90
18297;DHT22;18066;52.106;5.534;2022-07-23T15:30:34;33.60;99.90
18297;DHT22;18066;52.106;5.534;2022-07-23T15:33:01;35.10;99.90
18297;DHT22;18066;52.106;5.534;2022-07-23T15:35:27;35.70;99.90
18297;DHT22;18066;52.106;5.534;2022-07-23T15:37:55;35.10;99.90